createdAt,value
2023-02-08T05:06:40.733Z,102878.06
2023-02-08T05:12:44.764Z,102901.84
2023-02-08T15:41:13.289Z,103161.53
2023-02-08T15:47:37.999Z,103175.31
2023-02-08T15:53:49.577Z,103190.91
2023-02-08T15:59:51.752Z,103180.72
2023-02-08T16:06:04.004Z,103183.97
2023-02-08T16:12:06.720Z,103186.31
2023-02-08T16:18:39.640Z,103201.88
2023-02-08T16:24:41.892Z,103204.75
2023-02-08T16:30:45.360Z,103208.78
2023-02-08T16:36:52.712Z,103205.56
2023-02-08T16:43:34.072Z,103201.00
2023-02-08T16:49:36.872Z,103199.63
2023-02-08T16:55:39.233Z,103200.72
2023-02-08T17:01:52.920Z,103198.19
2023-02-08T17:08:08.180Z,103197.66
2023-02-08T17:14:11.387Z,103206.13
2023-02-08T17:20:25.929Z,103216.06
2023-02-08T17:26:32.159Z,103225.81
2023-02-08T17:32:38.156Z,103231.50
2023-02-08T17:38:43.050Z,103235.88
2023-02-08T17:44:45.532Z,103248.47
2023-02-08T17:50:51.138Z,103249.97
2023-02-08T17:56:58.711Z,103244.91
2023-02-08T18:03:06.058Z,103248.59
2023-02-08T18:09:08.514Z,103251.50
2023-02-08T18:15:16.985Z,103258.00
2023-02-08T18:21:21.934Z,103258.59
2023-02-08T18:27:27.724Z,103265.56
2023-02-08T18:33:30.490Z,103269.97
2023-02-08T18:39:35.597Z,103275.16
2023-02-08T18:45:40.029Z,103273.88
2023-02-08T18:51:46.474Z,103269.06
2023-02-08T18:57:49.867Z,103271.09
2023-02-08T19:03:54.560Z,103277.81
2023-02-08T19:09:57.245Z,103285.84
2023-02-08T19:15:59.426Z,103288.41
2023-02-08T19:22:03.101Z,103297.72
2023-02-08T19:28:07.049Z,103289.13
2023-02-08T19:34:10.779Z,103298.53
2023-02-08T19:40:14.577Z,103280.19
2023-02-08T19:46:22.583Z,103277.16
2023-02-08T19:52:24.833Z,103275.47
2023-02-08T19:58:28.420Z,103278.22
2023-02-08T20:04:30.829Z,103280.13
2023-02-08T20:10:42.294Z,103275.47
2023-02-08T20:16:45.893Z,103280.91
2023-02-08T20:22:48.529Z,103288.16
2023-02-08T20:28:58.225Z,103287.50
2023-02-08T20:35:00.575Z,103297.22
2023-02-08T20:41:07.381Z,103292.38
2023-02-08T20:47:12.001Z,103296.28
2023-02-08T20:53:15.001Z,103296.84
2023-02-08T20:59:19.226Z,103295.72
2023-02-08T21:05:21.292Z,103308.34
2023-02-08T21:11:29.610Z,103298.50
2023-02-08T21:17:31.737Z,103300.44
2023-02-08T21:23:35.593Z,103305.25
2023-02-08T21:29:37.709Z,103298.84
2023-02-08T21:35:40.001Z,103301.16
2023-02-08T21:41:45.784Z,103311.50
2023-02-08T21:47:48.110Z,103309.22
2023-02-08T21:54:11.494Z,103307.38
2023-02-08T22:00:15.503Z,103309.22
2023-02-08T22:06:18.345Z,103316.31
2023-02-08T22:12:23.684Z,103317.22
2023-02-08T22:18:30.040Z,103322.19
2023-02-08T22:24:34.014Z,103323.50
2023-02-08T22:30:36.491Z,103311.72
2023-02-08T22:36:40.924Z,103313.97
2023-02-08T22:42:43.968Z,103316.84
2023-02-08T22:48:48.711Z,103330.13
2023-02-08T22:54:52.440Z,103335.13
2023-02-08T23:00:56.555Z,103313.28
2023-02-08T23:07:00.391Z,103316.81
2023-02-08T23:13:03.420Z,103317.03
2023-02-08T23:19:05.762Z,103320.16
2023-02-08T23:25:09.618Z,103317.53
2023-02-08T23:31:14.218Z,103308.28
2023-02-08T23:37:16.376Z,103317.34
2023-02-08T23:43:18.985Z,103324.59
2023-02-08T23:49:23.064Z,103327.25
2023-02-08T23:55:27.277Z,103322.50
